• Join FlightAware (Why Join?)
  • Login
  • US Flag 
09:12PM EST


 

Airport Tracker/Info


-or-


 

Live Flight TrackerFlight Track Log ✈ N84WS ✈ 02-May-2013 ✈ KPSM - KBED

Flight Track Log - Related Links

Times and Time Zones

All times are in EDT time to prevent confusion due to time zone crossing. See the N84WS flight status page for this flight to view local times or setup timezone preferences in your user account.

Time Position Orientation Groundspeed Altitude Reporting Facility
EDT Latitude Longitude Course Direction KTS MPH feet Rate Location/Type
10:24AM 43.1000 -70.8333 270° West 104 120 1,200  Level KA90
10:25AM 43.1000 -70.8667 270° West 114 131 2,400 840 Climbing KA90
10:26AM 43.0667 -70.8833 200° South 121 139 3,100 300 Climbing KA90
10:27AM 43.0333 -70.9167 216° Southwest 153 176 3,100  Level KA90
10:28AM 42.9833 -70.9333 194° South 164 189 3,100 -60 Level KA90
10:29AM 42.9500 -70.9667 216° Southwest 159 183 3,000 -60 Descending KA90
10:30AM 42.9000 -71.0000 206° Southwest 156 180 3,000  Level KA90
10:31AM 42.8667 -71.0167 200° South 156 180 3,100  Climbing KA90
10:32AM 42.8167 -71.0333 194° South 162 186 3,100  Level KA90
10:33AM 42.7833 -71.0500 200° South 165 190 3,100  Level KA90
10:34AM 42.7500 -71.1000 228° Southwest 169 194 3,100  Level KA90
10:35AM 42.7333 -71.1500 246° West 163 188 3,100  Level KA90
10:36AM 42.6833 -71.1833 206° Southwest 170 196 3,100  Level KA90
10:37AM 42.6500 -71.2000 200° South 167 192 3,100 -180 Level KA90
10:38AM 42.6000 -71.2167 194° South 169 194 2,800 -420 Descending KA90
10:39AM 42.5500 -71.2333 194° South 167 192 2,300 -600 Descending KA90
10:40AM 42.5167 -71.2333 180° South 134 154 1,600 -660 Descending KA90
10:41AM 42.4833 -71.2333 180° South 112 129 1,000 -600 Descending KA90
10:42AM 42.4667 -71.2500 216° Southwest 107 123 500 -540 Descending KA90
10:44AM 42.4667 -71.2833 209° Southwest  Level FlightAware Approximate
10:51AM 42.4699 -71.2890 209° Southwest  Level Estimated